createdAt,value
2022-12-22T18:33:23.197Z,9.60
2022-12-22T18:35:50.062Z,9.60
2022-12-22T18:38:33.781Z,9.60
2022-12-22T18:41:00.806Z,9.60
2022-12-22T18:43:30.209Z,9.70
2022-12-22T18:45:57.551Z,9.70
2022-12-22T18:48:24.185Z,9.70
2022-12-22T18:50:53.027Z,9.70
2022-12-22T18:53:23.063Z,9.80
2022-12-22T18:55:49.839Z,9.80
2022-12-22T18:58:16.613Z,9.80
2022-12-22T19:00:44.585Z,9.80
2022-12-22T19:03:17.527Z,9.80
2022-12-22T19:05:47.963Z,9.90
2022-12-22T19:08:20.431Z,9.90
2022-12-22T19:11:04.066Z,9.90
2022-12-22T19:13:35.741Z,9.90
2022-12-22T19:16:04.500Z,9.90
2022-12-22T19:18:31.253Z,9.90
2022-12-22T19:20:58.368Z,9.90
2022-12-22T19:23:26.137Z,10.00
2022-12-22T19:26:08.334Z,10.00
2022-12-22T19:28:38.845Z,10.00
2022-12-22T19:31:10.097Z,10.00
2022-12-22T19:33:42.274Z,10.00
2022-12-22T19:36:26.835Z,10.10
2022-12-22T19:39:02.806Z,10.10
2022-12-22T19:41:40.154Z,10.20
2022-12-22T19:44:22.109Z,10.20
2022-12-22T19:46:49.542Z,10.20
2022-12-22T19:49:21.668Z,10.30
2022-12-22T19:51:49.752Z,10.30
2022-12-22T19:54:16.739Z,10.30
2022-12-22T19:56:50.893Z,10.30
2022-12-22T19:59:37.732Z,10.30
2022-12-22T20:02:21.198Z,10.30
2022-12-22T20:04:49.315Z,10.30
2022-12-22T20:07:19.987Z,10.20
2022-12-22T20:09:47.340Z,10.20
2022-12-22T20:12:29.432Z,10.20
2022-12-22T20:14:56.317Z,10.20
2022-12-22T20:17:24.265Z,10.10
2022-12-22T20:19:51.063Z,10.10
2022-12-22T20:22:20.003Z,10.10
2022-12-22T20:24:48.126Z,10.10
2022-12-22T20:27:18.930Z,10.10
2022-12-22T20:29:45.651Z,10.10
2022-12-22T20:32:17.086Z,10.10
2022-12-22T20:34:45.356Z,10.20
2022-12-22T20:37:14.593Z,10.20
2022-12-22T20:39:41.960Z,10.20
2022-12-22T20:42:20.061Z,10.20
2022-12-22T20:45:01.496Z,10.20
2022-12-22T20:47:31.720Z,10.30
2022-12-22T20:49:59.042Z,10.20
2022-12-22T20:52:28.372Z,10.20
2022-12-22T20:54:54.916Z,10.30
2022-12-22T20:57:23.030Z,10.30
2022-12-22T20:59:55.705Z,10.30
2022-12-22T21:02:28.281Z,10.30
2022-12-22T21:04:55.272Z,10.30
2022-12-22T21:07:21.892Z,10.30
2022-12-22T21:09:48.724Z,10.30
2022-12-22T21:12:15.386Z,10.30
2022-12-22T21:14:42.115Z,10.30
2022-12-22T21:17:16.945Z,10.30
2022-12-22T21:19:46.195Z,10.30
2022-12-22T21:22:12.912Z,10.30
2022-12-22T21:24:41.521Z,10.40
2022-12-22T21:27:18.270Z,10.40
2022-12-22T21:29:45.059Z,10.40
2022-12-22T21:32:15.559Z,10.40
2022-12-22T21:34:42.477Z,10.40
2022-12-22T21:37:16.382Z,10.40
2022-12-22T21:39:44.763Z,10.50
2022-12-22T21:42:19.478Z,10.50
2022-12-22T21:44:46.375Z,10.40
2022-12-22T21:47:18.271Z,10.50
2022-12-22T21:49:44.953Z,10.50
2022-12-22T21:52:11.619Z,10.40
2022-12-22T21:54:38.496Z,10.40
2022-12-22T21:57:05.244Z,10.40
2022-12-22T21:59:31.937Z,10.50
2022-12-22T22:01:58.792Z,10.50
2022-12-22T22:04:25.576Z,10.50
2022-12-22T22:06:52.205Z,10.50
2022-12-22T22:09:18.978Z,10.50
2022-12-22T22:12:26.389Z,10.40
2022-12-22T22:15:22.041Z,10.40
2022-12-22T22:17:49.350Z,10.40
2022-12-22T22:20:24.741Z,10.40
2022-12-22T22:22:52.529Z,10.40
2022-12-22T22:25:19.974Z,10.50
2022-12-22T22:27:48.067Z,10.50
2022-12-22T22:30:21.176Z,10.50
2022-12-22T22:32:50.117Z,10.50
2022-12-22T22:35:23.693Z,10.50
